Scheibbs, Austria
Current Conditions -  °F | °C
As of 1:50 PM on Saturday 25 Oct 2014 (Local Time) from LOWL Reporting Station
Broken Clouds Broken Clouds  
Wind Chill: 46°   Ceiling: 1800
Heat Index: 46°   Visibility: 6mi
Dew Point: 41°   Wind: 3mph
Humidity: 81%   Direction: 180°S
Pressure: 30.18"   Gusts: NA
Location:  48.01°N, 15.17°E
Report Text: LOWL 251150Z 18003KT 130V230 9999 SCT012 BKN018 08/05 Q1022 NOSIG
Loading
Personal Weather Stations






























Interactive Weather Map
Tropical Storm Tracking
New forecast layout! Learn more

10-Day Weather Forecast

Advertisements
Track Severe Weather on mobile